sensor_id;sensor_type;location;lat;lon;timestamp;P1;durP1;ratioP1;P2;durP2;ratioP2
2772;SDS011;1394;47.044;15.744;2022-08-05T00:01:49;8.40;;;7.70;;
2772;SDS011;1394;47.044;15.744;2022-08-05T00:04:17;9.23;;;8.43;;
2772;SDS011;1394;47.044;15.744;2022-08-05T00:06:45;9.93;;;9.00;;
2772;SDS011;1394;47.044;15.744;2022-08-05T00:09:12;8.90;;;8.13;;
2772;SDS011;1394;47.044;15.744;2022-08-05T00:11:40;8.30;;;7.60;;
2772;SDS011;1394;47.044;15.744;2022-08-05T00:14:08;8.10;;;7.43;;
2772;SDS011;1394;47.044;15.744;2022-08-05T00:16:35;8.27;;;7.57;;
2772;SDS011;1394;47.044;15.744;2022-08-05T00:19:02;9.20;;;8.40;;
2772;SDS011;1394;47.044;15.744;2022-08-05T00:21:30;9.13;;;8.23;;
2772;SDS011;1394;47.044;15.744;2022-08-05T00:23:57;9.37;;;8.40;;
2772;SDS011;1394;47.044;15.744;2022-08-05T00:26:25;9.23;;;8.07;;
2772;SDS011;1394;47.044;15.744;2022-08-05T00:28:53;9.73;;;8.87;;
2772;SDS011;1394;47.044;15.744;2022-08-05T00:31:21;9.80;;;8.90;;
2772;SDS011;1394;47.044;15.744;2022-08-05T00:33:48;9.93;;;8.93;;
2772;SDS011;1394;47.044;15.744;2022-08-05T00:36:15;8.90;;;8.20;;
2772;SDS011;1394;47.044;15.744;2022-08-05T00:38:42;9.73;;;8.90;;
2772;SDS011;1394;47.044;15.744;2022-08-05T00:41:09;9.23;;;8.43;;
2772;SDS011;1394;47.044;15.744;2022-08-05T00:43:37;9.47;;;8.67;;
2772;SDS011;1394;47.044;15.744;2022-08-05T00:46:05;10.37;;;9.47;;
2772;SDS011;1394;47.044;15.744;2022-08-05T00:48:33;9.47;;;8.57;;
2772;SDS011;1394;47.044;15.744;2022-08-05T00:51:00;9.77;;;8.98;;
2772;SDS011;1394;47.044;15.744;2022-08-05T00:53:27;10.13;;;9.23;;
2772;SDS011;1394;47.044;15.744;2022-08-05T00:55:54;11.53;;;9.00;;
2772;SDS011;1394;47.044;15.744;2022-08-05T00:58:22;9.80;;;9.00;;
2772;SDS011;1394;47.044;15.744;2022-08-05T01:00:49;9.40;;;8.50;;
2772;SDS011;1394;47.044;15.744;2022-08-05T01:03:18;8.90;;;8.20;;
2772;SDS011;1394;47.044;15.744;2022-08-05T01:05:45;8.93;;;8.23;;
2772;SDS011;1394;47.044;15.744;2022-08-05T01:08:12;9.10;;;8.17;;
2772;SDS011;1394;47.044;15.744;2022-08-05T01:10:40;9.50;;;8.60;;
2772;SDS011;1394;47.044;15.744;2022-08-05T01:13:12;8.73;;;7.80;;
2772;SDS011;1394;47.044;15.744;2022-08-05T01:15:41;9.00;;;8.27;;
2772;SDS011;1394;47.044;15.744;2022-08-05T01:18:11;9.10;;;8.23;;
2772;SDS011;1394;47.044;15.744;2022-08-05T01:20:43;9.83;;;8.90;;
2772;SDS011;1394;47.044;15.744;2022-08-05T01:23:12;10.20;;;8.30;;
2772;SDS011;1394;47.044;15.744;2022-08-05T01:25:52;9.90;;;9.10;;
2772;SDS011;1394;47.044;15.744;2022-08-05T01:28:32;9.80;;;9.00;;
2772;SDS011;1394;47.044;15.744;2022-08-05T01:31:01;9.37;;;8.47;;
2772;SDS011;1394;47.044;15.744;2022-08-05T01:33:32;9.43;;;8.67;;
2772;SDS011;1394;47.044;15.744;2022-08-05T01:36:00;9.63;;;8.73;;
2772;SDS011;1394;47.044;15.744;2022-08-05T01:38:28;10.40;;;9.50;;
2772;SDS011;1394;47.044;15.744;2022-08-05T01:40:57;10.80;;;9.50;;
2772;SDS011;1394;47.044;15.744;2022-08-05T01:43:25;10.47;;;9.50;;
2772;SDS011;1394;47.044;15.744;2022-08-05T01:45:55;10.57;;;9.67;;
2772;SDS011;1394;47.044;15.744;2022-08-05T01:48:23;10.33;;;9.47;;
2772;SDS011;1394;47.044;15.744;2022-08-05T01:50:50;12.83;;;11.73;;
2772;SDS011;1394;47.044;15.744;2022-08-05T01:53:18;10.23;;;9.33;;
2772;SDS011;1394;47.044;15.744;2022-08-05T01:55:46;12.03;;;10.60;;
2772;SDS011;1394;47.044;15.744;2022-08-05T01:58:14;12.03;;;10.93;;
2772;SDS011;1394;47.044;15.744;2022-08-05T02:00:43;11.87;;;10.87;;
2772;SDS011;1394;47.044;15.744;2022-08-05T02:03:15;11.30;;;10.20;;
2772;SDS011;1394;47.044;15.744;2022-08-05T02:05:43;11.97;;;10.77;;
2772;SDS011;1394;47.044;15.744;2022-08-05T02:08:11;12.03;;;10.77;;
2772;SDS011;1394;47.044;15.744;2022-08-05T02:10:40;11.67;;;10.67;;
2772;SDS011;1394;47.044;15.744;2022-08-05T02:13:11;10.83;;;9.83;;
2772;SDS011;1394;47.044;15.744;2022-08-05T02:15:40;10.73;;;9.77;;
2772;SDS011;1394;47.044;15.744;2022-08-05T02:18:09;11.03;;;9.93;;
2772;SDS011;1394;47.044;15.744;2022-08-05T02:20:41;11.60;;;10.13;;
2772;SDS011;1394;47.044;15.744;2022-08-05T02:23:10;10.30;;;9.40;;
2772;SDS011;1394;47.044;15.744;2022-08-05T02:25:38;10.53;;;9.63;;
2772;SDS011;1394;47.044;15.744;2022-08-05T02:28:06;11.30;;;10.20;;
2772;SDS011;1394;47.044;15.744;2022-08-05T02:30:36;11.30;;;10.30;;
2772;SDS011;1394;47.044;15.744;2022-08-05T02:33:04;11.10;;;10.10;;
2772;SDS011;1394;47.044;15.744;2022-08-05T02:35:32;11.67;;;10.67;;
2772;SDS011;1394;47.044;15.744;2022-08-05T02:38:02;10.37;;;9.47;;
2772;SDS011;1394;47.044;15.744;2022-08-05T02:40:30;9.30;;;8.50;;
2772;SDS011;1394;47.044;15.744;2022-08-05T02:42:57;11.47;;;10.53;;
2772;SDS011;1394;47.044;15.744;2022-08-05T02:45:25;10.50;;;9.70;;
2772;SDS011;1394;47.044;15.744;2022-08-05T02:47:53;10.30;;;9.40;;
2772;SDS011;1394;47.044;15.744;2022-08-05T02:50:22;11.07;;;10.10;;
2772;SDS011;1394;47.044;15.744;2022-08-05T02:52:50;10.30;;;9.40;;
2772;SDS011;1394;47.044;15.744;2022-08-05T02:55:19;10.80;;;9.80;;
2772;SDS011;1394;47.044;15.744;2022-08-05T02:57:46;11.50;;;10.40;;
2772;SDS011;1394;47.044;15.744;2022-08-05T03:00:15;11.57;;;10.57;;
2772;SDS011;1394;47.044;15.744;2022-08-05T03:02:42;9.90;;;9.00;;
2772;SDS011;1394;47.044;15.744;2022-08-05T03:05:11;9.60;;;8.80;;
2772;SDS011;1394;47.044;15.744;2022-08-05T03:07:40;10.57;;;9.50;;
2772;SDS011;1394;47.044;15.744;2022-08-05T03:10:08;10.40;;;9.47;;
2772;SDS011;1394;47.044;15.744;2022-08-05T03:12:37;10.93;;;9.93;;
2772;SDS011;1394;47.044;15.744;2022-08-05T03:15:06;10.20;;;9.30;;
2772;SDS011;1394;47.044;15.744;2022-08-05T03:17:34;9.73;;;8.73;;
2772;SDS011;1394;47.044;15.744;2022-08-05T03:20:01;10.07;;;9.27;;
2772;SDS011;1394;47.044;15.744;2022-08-05T03:22:28;11.30;;;10.37;;
2772;SDS011;1394;47.044;15.744;2022-08-05T03:24:56;11.20;;;10.30;;
2772;SDS011;1394;47.044;15.744;2022-08-05T03:27:23;11.53;;;10.53;;
2772;SDS011;1394;47.044;15.744;2022-08-05T03:29:52;11.57;;;10.50;;
2772;SDS011;1394;47.044;15.744;2022-08-05T03:32:20;11.17;;;10.17;;
2772;SDS011;1394;47.044;15.744;2022-08-05T03:34:47;10.37;;;9.47;;
2772;SDS011;1394;47.044;15.744;2022-08-05T03:37:15;11.13;;;10.23;;
2772;SDS011;1394;47.044;15.744;2022-08-05T03:39:54;11.57;;;10.57;;
2772;SDS011;1394;47.044;15.744;2022-08-05T03:42:22;10.43;;;9.50;;
2772;SDS011;1394;47.044;15.744;2022-08-05T03:44:49;9.73;;;8.93;;
2772;SDS011;1394;47.044;15.744;2022-08-05T03:47:18;12.73;;;9.57;;
2772;SDS011;1394;47.044;15.744;2022-08-05T03:49:45;12.17;;;10.07;;
2772;SDS011;1394;47.044;15.744;2022-08-05T03:52:16;10.03;;;9.13;;
2772;SDS011;1394;47.044;15.744;2022-08-05T03:54:45;9.43;;;8.60;;
2772;SDS011;1394;47.044;15.744;2022-08-05T03:57:13;10.03;;;9.13;;
2772;SDS011;1394;47.044;15.744;2022-08-05T03:59:44;10.63;;;9.73;;
2772;SDS011;1394;47.044;15.744;2022-08-05T04:02:12;9.40;;;8.60;;
2772;SDS011;1394;47.044;15.744;2022-08-05T04:04:42;11.10;;;10.10;;
2772;SDS011;1394;47.044;15.744;2022-08-05T04:07:10;10.13;;;9.17;;
2772;SDS011;1394;47.044;15.744;2022-08-05T04:09:37;11.13;;;9.63;;
2772;SDS011;1394;47.044;15.744;2022-08-05T04:12:05;10.80;;;9.90;;
2772;SDS011;1394;47.044;15.744;2022-08-05T04:14:34;11.10;;;10.00;;
2772;SDS011;1394;47.044;15.744;2022-08-05T04:17:01;12.33;;;11.23;;
2772;SDS011;1394;47.044;15.744;2022-08-05T04:19:29;10.23;;;9.33;;
2772;SDS011;1394;47.044;15.744;2022-08-05T04:21:57;10.07;;;9.27;;
2772;SDS011;1394;47.044;15.744;2022-08-05T04:24:24;10.23;;;9.33;;
2772;SDS011;1394;47.044;15.744;2022-08-05T04:26:55;9.80;;;8.93;;
2772;SDS011;1394;47.044;15.744;2022-08-05T04:29:22;9.80;;;9.00;;
2772;SDS011;1394;47.044;15.744;2022-08-05T04:31:49;9.83;;;9.03;;
2772;SDS011;1394;47.044;15.744;2022-08-05T04:34:16;10.63;;;9.60;;
2772;SDS011;1394;47.044;15.744;2022-08-05T04:36:44;13.23;;;9.73;;
2772;SDS011;1394;47.044;15.744;2022-08-05T04:39:15;11.17;;;10.27;;
2772;SDS011;1394;47.044;15.744;2022-08-05T04:41:43;10.20;;;9.23;;
2772;SDS011;1394;47.044;15.744;2022-08-05T04:44:10;10.50;;;9.53;;
2772;SDS011;1394;47.044;15.744;2022-08-05T04:46:37;9.17;;;8.37;;
2772;SDS011;1394;47.044;15.744;2022-08-05T04:49:05;10.70;;;8.70;;
2772;SDS011;1394;47.044;15.744;2022-08-05T04:51:32;10.73;;;9.70;;
2772;SDS011;1394;47.044;15.744;2022-08-05T04:53:59;9.40;;;8.50;;
2772;SDS011;1394;47.044;15.744;2022-08-05T04:56:31;11.60;;;9.27;;
2772;SDS011;1394;47.044;15.744;2022-08-05T04:58:58;8.70;;;7.90;;
2772;SDS011;1394;47.044;15.744;2022-08-05T05:01:25;9.60;;;8.30;;
2772;SDS011;1394;47.044;15.744;2022-08-05T05:03:54;9.47;;;8.57;;
2772;SDS011;1394;47.044;15.744;2022-08-05T05:06:23;10.40;;;8.00;;
2772;SDS011;1394;47.044;15.744;2022-08-05T05:08:50;8.57;;;7.67;;
2772;SDS011;1394;47.044;15.744;2022-08-05T05:11:18;10.33;;;8.73;;
2772;SDS011;1394;47.044;15.744;2022-08-05T05:13:47;9.13;;;8.20;;
2772;SDS011;1394;47.044;15.744;2022-08-05T05:16:15;9.13;;;8.00;;
2772;SDS011;1394;47.044;15.744;2022-08-05T05:18:42;9.03;;;7.63;;
2772;SDS011;1394;47.044;15.744;2022-08-05T05:21:09;10.70;;;8.53;;
2772;SDS011;1394;47.044;15.744;2022-08-05T05:23:36;11.10;;;9.03;;
2772;SDS011;1394;47.044;15.744;2022-08-05T05:26:04;9.80;;;8.90;;
2772;SDS011;1394;47.044;15.744;2022-08-05T05:28:31;10.60;;;8.63;;
2772;SDS011;1394;47.044;15.744;2022-08-05T05:31:00;9.03;;;8.10;;
2772;SDS011;1394;47.044;15.744;2022-08-05T05:33:27;9.43;;;8.47;;
2772;SDS011;1394;47.044;15.744;2022-08-05T05:35:54;9.70;;;8.70;;
2772;SDS011;1394;47.044;15.744;2022-08-05T05:38:21;9.50;;;8.00;;
2772;SDS011;1394;47.044;15.744;2022-08-05T05:40:49;8.73;;;7.83;;
2772;SDS011;1394;47.044;15.744;2022-08-05T05:43:16;10.97;;;8.90;;
2772;SDS011;1394;47.044;15.744;2022-08-05T05:45:43;8.60;;;7.40;;
2772;SDS011;1394;47.044;15.744;2022-08-05T05:48:13;9.07;;;8.17;;
2772;SDS011;1394;47.044;15.744;2022-08-05T05:50:41;8.77;;;7.67;;
2772;SDS011;1394;47.044;15.744;2022-08-05T05:53:08;9.00;;;8.13;;
2772;SDS011;1394;47.044;15.744;2022-08-05T05:55:37;8.20;;;7.43;;
2772;SDS011;1394;47.044;15.744;2022-08-05T05:58:04;9.13;;;8.00;;
2772;SDS011;1394;47.044;15.744;2022-08-05T06:00:32;7.87;;;7.07;;
2772;SDS011;1394;47.044;15.744;2022-08-05T06:02:59;9.30;;;7.30;;
2772;SDS011;1394;47.044;15.744;2022-08-05T06:05:28;10.30;;;7.70;;
2772;SDS011;1394;47.044;15.744;2022-08-05T06:07:55;8.70;;;7.43;;
2772;SDS011;1394;47.044;15.744;2022-08-05T06:10:23;7.93;;;7.23;;
2772;SDS011;1394;47.044;15.744;2022-08-05T06:12:50;9.07;;;8.13;;
2772;SDS011;1394;47.044;15.744;2022-08-05T06:15:17;8.97;;;7.17;;
2772;SDS011;1394;47.044;15.744;2022-08-05T06:17:44;8.40;;;7.43;;
2772;SDS011;1394;47.044;15.744;2022-08-05T06:20:11;11.40;;;7.87;;
2772;SDS011;1394;47.044;15.744;2022-08-05T06:22:40;11.00;;;7.40;;
2772;SDS011;1394;47.044;15.744;2022-08-05T06:25:08;8.47;;;7.50;;
2772;SDS011;1394;47.044;15.744;2022-08-05T06:27:37;14.53;;;7.90;;
2772;SDS011;1394;47.044;15.744;2022-08-05T06:30:05;13.17;;;7.30;;
2772;SDS011;1394;47.044;15.744;2022-08-05T06:32:34;8.63;;;7.20;;
2772;SDS011;1394;47.044;15.744;2022-08-05T06:35:02;9.30;;;8.30;;
2772;SDS011;1394;47.044;15.744;2022-08-05T06:37:29;7.73;;;6.97;;
2772;SDS011;1394;47.044;15.744;2022-08-05T06:39:58;8.67;;;7.17;;
2772;SDS011;1394;47.044;15.744;2022-08-05T06:42:25;6.60;;;6.00;;
2772;SDS011;1394;47.044;15.744;2022-08-05T06:44:52;7.50;;;6.80;;
2772;SDS011;1394;47.044;15.744;2022-08-05T06:47:20;8.70;;;6.90;;
2772;SDS011;1394;47.044;15.744;2022-08-05T06:49:47;9.73;;;7.50;;
2772;SDS011;1394;47.044;15.744;2022-08-05T06:52:14;9.03;;;7.70;;
2772;SDS011;1394;47.044;15.744;2022-08-05T06:54:41;7.40;;;6.60;;
2772;SDS011;1394;47.044;15.744;2022-08-05T06:57:10;8.13;;;7.10;;
2772;SDS011;1394;47.044;15.744;2022-08-05T06:59:40;8.13;;;7.20;;
2772;SDS011;1394;47.044;15.744;2022-08-05T07:02:07;8.97;;;7.37;;
2772;SDS011;1394;47.044;15.744;2022-08-05T07:04:35;7.90;;;7.10;;
2772;SDS011;1394;47.044;15.744;2022-08-05T07:07:02;8.03;;;7.23;;
2772;SDS011;1394;47.044;15.744;2022-08-05T07:09:29;10.17;;;6.97;;
2772;SDS011;1394;47.044;15.744;2022-08-05T07:11:56;7.93;;;6.73;;
2772;SDS011;1394;47.044;15.744;2022-08-05T07:14:25;8.27;;;7.43;;
2772;SDS011;1394;47.044;15.744;2022-08-05T07:17:09;9.40;;;6.70;;
2772;SDS011;1394;47.044;15.744;2022-08-05T07:19:37;9.23;;;7.20;;
2772;SDS011;1394;47.044;15.744;2022-08-05T07:22:05;7.40;;;6.70;;
2772;SDS011;1394;47.044;15.744;2022-08-05T07:24:32;7.80;;;6.73;;
2772;SDS011;1394;47.044;15.744;2022-08-05T07:26:59;10.60;;;7.37;;
2772;SDS011;1394;47.044;15.744;2022-08-05T07:29:28;8.33;;;7.53;;
2772;SDS011;1394;47.044;15.744;2022-08-05T07:31:55;6.93;;;6.30;;
2772;SDS011;1394;47.044;15.744;2022-08-05T07:34:22;6.93;;;6.00;;
2772;SDS011;1394;47.044;15.744;2022-08-05T07:36:50;7.03;;;5.93;;
2772;SDS011;1394;47.044;15.744;2022-08-05T07:39:17;7.53;;;6.50;;
2772;SDS011;1394;47.044;15.744;2022-08-05T07:41:45;11.40;;;5.97;;
2772;SDS011;1394;47.044;15.744;2022-08-05T07:44:12;9.03;;;6.30;;
2772;SDS011;1394;47.044;15.744;2022-08-05T07:46:40;6.63;;;6.03;;
2772;SDS011;1394;47.044;15.744;2022-08-05T07:49:08;6.93;;;5.43;;
2772;SDS011;1394;47.044;15.744;2022-08-05T07:51:36;5.80;;;5.27;;
2772;SDS011;1394;47.044;15.744;2022-08-05T07:54:04;6.43;;;5.83;;
2772;SDS011;1394;47.044;15.744;2022-08-05T07:56:31;6.00;;;5.50;;
2772;SDS011;1394;47.044;15.744;2022-08-05T07:58:58;6.23;;;5.60;;
2772;SDS011;1394;47.044;15.744;2022-08-05T08:01:25;6.50;;;5.90;;
2772;SDS011;1394;47.044;15.744;2022-08-05T08:03:54;7.10;;;6.40;;
2772;SDS011;1394;47.044;15.744;2022-08-05T08:06:21;10.77;;;5.80;;
2772;SDS011;1394;47.044;15.744;2022-08-05T08:08:49;7.03;;;6.20;;
2772;SDS011;1394;47.044;15.744;2022-08-05T08:11:16;6.50;;;5.90;;
2772;SDS011;1394;47.044;15.744;2022-08-05T08:13:43;6.17;;;5.67;;
2772;SDS011;1394;47.044;15.744;2022-08-05T08:16:10;5.77;;;5.17;;
2772;SDS011;1394;47.044;15.744;2022-08-05T08:18:38;7.17;;;4.60;;
2772;SDS011;1394;47.044;15.744;2022-08-05T08:21:07;5.90;;;5.30;;
2772;SDS011;1394;47.044;15.744;2022-08-05T08:23:34;6.70;;;4.97;;
2772;SDS011;1394;47.044;15.744;2022-08-05T08:26:01;5.67;;;5.20;;
2772;SDS011;1394;47.044;15.744;2022-08-05T08:28:29;5.47;;;4.80;;
2772;SDS011;1394;47.044;15.744;2022-08-05T08:30:56;7.80;;;5.10;;
2772;SDS011;1394;47.044;15.744;2022-08-05T08:33:23;6.20;;;5.17;;
2772;SDS011;1394;47.044;15.744;2022-08-05T08:35:51;6.10;;;5.53;;
2772;SDS011;1394;47.044;15.744;2022-08-05T08:38:20;9.57;;;5.20;;
2772;SDS011;1394;47.044;15.744;2022-08-05T08:40:47;5.47;;;4.97;;
2772;SDS011;1394;47.044;15.744;2022-08-05T08:43:17;5.33;;;4.70;;
2772;SDS011;1394;47.044;15.744;2022-08-05T08:45:45;6.80;;;4.67;;
2772;SDS011;1394;47.044;15.744;2022-08-05T08:48:15;5.50;;;5.00;;
2772;SDS011;1394;47.044;15.744;2022-08-05T08:50:45;5.63;;;5.23;;
2772;SDS011;1394;47.044;15.744;2022-08-05T08:53:14;5.57;;;5.07;;
2772;SDS011;1394;47.044;15.744;2022-08-05T08:55:44;5.80;;;5.23;;
2772;SDS011;1394;47.044;15.744;2022-08-05T08:58:12;6.73;;;5.40;;
2772;SDS011;1394;47.044;15.744;2022-08-05T09:00:41;5.40;;;5.00;;
2772;SDS011;1394;47.044;15.744;2022-08-05T09:03:09;6.63;;;6.03;;
2772;SDS011;1394;47.044;15.744;2022-08-05T09:05:36;6.03;;;5.53;;
2772;SDS011;1394;47.044;15.744;2022-08-05T09:08:04;6.57;;;5.90;;
2772;SDS011;1394;47.044;15.744;2022-08-05T09:10:32;5.73;;;5.10;;
2772;SDS011;1394;47.044;15.744;2022-08-05T09:13:01;6.00;;;5.40;;
2772;SDS011;1394;47.044;15.744;2022-08-05T09:15:28;6.00;;;5.40;;
2772;SDS011;1394;47.044;15.744;2022-08-05T09:17:55;5.53;;;5.03;;
2772;SDS011;1394;47.044;15.744;2022-08-05T09:20:22;5.63;;;5.13;;
2772;SDS011;1394;47.044;15.744;2022-08-05T09:23:01;5.50;;;5.00;;
2772;SDS011;1394;47.044;15.744;2022-08-05T09:25:29;5.93;;;5.53;;
2772;SDS011;1394;47.044;15.744;2022-08-05T09:28:04;6.63;;;6.00;;
2772;SDS011;1394;47.044;15.744;2022-08-05T09:30:33;6.00;;;5.50;;
2772;SDS011;1394;47.044;15.744;2022-08-05T09:33:00;6.00;;;5.50;;
2772;SDS011;1394;47.044;15.744;2022-08-05T09:35:28;7.03;;;5.97;;
2772;SDS011;1394;47.044;15.744;2022-08-05T09:37:55;6.20;;;5.60;;
2772;SDS011;1394;47.044;15.744;2022-08-05T09:40:30;5.90;;;5.30;;
2772;SDS011;1394;47.044;15.744;2022-08-05T09:42:59;5.83;;;5.33;;
2772;SDS011;1394;47.044;15.744;2022-08-05T09:45:37;5.27;;;4.77;;
2772;SDS011;1394;47.044;15.744;2022-08-05T09:48:17;5.63;;;5.13;;
2772;SDS011;1394;47.044;15.744;2022-08-05T09:50:48;6.03;;;4.73;;
2772;SDS011;1394;47.044;15.744;2022-08-05T09:53:19;5.00;;;4.60;;
2772;SDS011;1394;47.044;15.744;2022-08-05T09:55:49;5.30;;;4.80;;
2772;SDS011;1394;47.044;15.744;2022-08-05T09:58:17;5.23;;;4.83;;
2772;SDS011;1394;47.044;15.744;2022-08-05T10:00:53;5.40;;;4.90;;
2772;SDS011;1394;47.044;15.744;2022-08-05T10:03:22;5.20;;;4.70;;
2772;SDS011;1394;47.044;15.744;2022-08-05T10:08:35;5.63;;;5.13;;
2772;SDS011;1394;47.044;15.744;2022-08-05T10:11:03;5.50;;;4.70;;
2772;SDS011;1394;47.044;15.744;2022-08-05T10:13:32;5.20;;;4.80;;
2772;SDS011;1394;47.044;15.744;2022-08-05T10:16:02;5.60;;;4.47;;
2772;SDS011;1394;47.044;15.744;2022-08-05T10:18:30;5.53;;;5.00;;
2772;SDS011;1394;47.044;15.744;2022-08-05T10:20:59;5.87;;;5.20;;
2772;SDS011;1394;47.044;15.744;2022-08-05T10:23:28;4.87;;;4.37;;
2772;SDS011;1394;47.044;15.744;2022-08-05T10:25:56;5.70;;;5.00;;
2772;SDS011;1394;47.044;15.744;2022-08-05T10:28:25;6.27;;;4.63;;
2772;SDS011;1394;47.044;15.744;2022-08-05T10:30:53;5.40;;;4.90;;
2772;SDS011;1394;47.044;15.744;2022-08-05T10:35:52;5.50;;;5.00;;
2772;SDS011;1394;47.044;15.744;2022-08-05T10:38:20;4.77;;;4.43;;
2772;SDS011;1394;47.044;15.744;2022-08-05T10:40:51;6.00;;;4.63;;
2772;SDS011;1394;47.044;15.744;2022-08-05T10:43:24;5.10;;;4.70;;
2772;SDS011;1394;47.044;15.744;2022-08-05T10:45:57;5.00;;;4.60;;
2772;SDS011;1394;47.044;15.744;2022-08-05T10:48:31;6.43;;;5.30;;
2772;SDS011;1394;47.044;15.744;2022-08-05T10:51:01;5.17;;;4.67;;
2772;SDS011;1394;47.044;15.744;2022-08-05T10:53:32;4.80;;;4.40;;
2772;SDS011;1394;47.044;15.744;2022-08-05T10:56:03;4.63;;;4.33;;
2772;SDS011;1394;47.044;15.744;2022-08-05T10:58:31;5.07;;;4.67;;
2772;SDS011;1394;47.044;15.744;2022-08-05T11:00:58;5.17;;;4.67;;
2772;SDS011;1394;47.044;15.744;2022-08-05T11:03:26;4.80;;;4.30;;
2772;SDS011;1394;47.044;15.744;2022-08-05T11:06:05;4.93;;;4.53;;
2772;SDS011;1394;47.044;15.744;2022-08-05T11:08:32;5.27;;;4.77;;
2772;SDS011;1394;47.044;15.744;2022-08-05T11:13:45;5.93;;;4.40;;
2772;SDS011;1394;47.044;15.744;2022-08-05T11:16:21;7.70;;;4.45;;
2772;SDS011;1394;47.044;15.744;2022-08-05T11:21:32;5.90;;;5.40;;
2772;SDS011;1394;47.044;15.744;2022-08-05T11:24:06;8.15;;;7.35;;
2772;SDS011;1394;47.044;15.744;2022-08-05T11:26:33;13.73;;;7.93;;
2772;SDS011;1394;47.044;15.744;2022-08-05T11:29:04;7.03;;;6.43;;
2772;SDS011;1394;47.044;15.744;2022-08-05T11:31:33;5.78;;;4.38;;
2772;SDS011;1394;47.044;15.744;2022-08-05T11:34:01;6.30;;;4.85;;
2772;SDS011;1394;47.044;15.744;2022-08-05T11:36:40;4.80;;;4.40;;
2772;SDS011;1394;47.044;15.744;2022-08-05T11:39:10;4.78;;;4.38;;
2772;SDS011;1394;47.044;15.744;2022-08-05T11:41:39;4.63;;;4.22;;
2772;SDS011;1394;47.044;15.744;2022-08-05T11:44:07;5.40;;;4.70;;
2772;SDS011;1394;47.044;15.744;2022-08-05T11:46:38;5.97;;;5.47;;
2772;SDS011;1394;47.044;15.744;2022-08-05T11:49:07;5.18;;;4.60;;
2772;SDS011;1394;47.044;15.744;2022-08-05T11:51:34;7.25;;;4.50;;
2772;SDS011;1394;47.044;15.744;2022-08-05T11:54:03;4.93;;;4.53;;
2772;SDS011;1394;47.044;15.744;2022-08-05T11:56:43;5.15;;;4.72;;
2772;SDS011;1394;47.044;15.744;2022-08-05T11:59:14;5.85;;;4.63;;
2772;SDS011;1394;47.044;15.744;2022-08-05T12:01:54;5.55;;;4.78;;
2772;SDS011;1394;47.044;15.744;2022-08-05T12:04:22;5.57;;;5.07;;
2772;SDS011;1394;47.044;15.744;2022-08-05T12:06:49;5.32;;;4.93;;
2772;SDS011;1394;47.044;15.744;2022-08-05T12:09:19;5.30;;;4.80;;
2772;SDS011;1394;47.044;15.744;2022-08-05T12:11:47;5.65;;;5.15;;
2772;SDS011;1394;47.044;15.744;2022-08-05T12:14:14;5.60;;;5.10;;
2772;SDS011;1394;47.044;15.744;2022-08-05T12:16:42;5.28;;;4.78;;
2772;SDS011;1394;47.044;15.744;2022-08-05T12:19:13;4.88;;;4.47;;
2772;SDS011;1394;47.044;15.744;2022-08-05T12:21:47;5.68;;;4.70;;
2772;SDS011;1394;47.044;15.744;2022-08-05T12:24:15;5.00;;;4.32;;
2772;SDS011;1394;47.044;15.744;2022-08-05T12:26:45;4.70;;;4.30;;
2772;SDS011;1394;47.044;15.744;2022-08-05T12:29:13;4.53;;;4.22;;
2772;SDS011;1394;47.044;15.744;2022-08-05T12:31:46;4.57;;;4.20;;
2772;SDS011;1394;47.044;15.744;2022-08-05T12:34:14;4.57;;;4.18;;
2772;SDS011;1394;47.044;15.744;2022-08-05T12:36:42;4.65;;;4.10;;
2772;SDS011;1394;47.044;15.744;2022-08-05T12:39:12;4.65;;;4.25;;
2772;SDS011;1394;47.044;15.744;2022-08-05T12:41:40;4.50;;;4.10;;
2772;SDS011;1394;47.044;15.744;2022-08-05T12:44:09;4.50;;;4.10;;
2772;SDS011;1394;47.044;15.744;2022-08-05T12:46:38;4.68;;;4.28;;
2772;SDS011;1394;47.044;15.744;2022-08-05T12:49:07;4.78;;;4.30;;
2772;SDS011;1394;47.044;15.744;2022-08-05T12:51:45;4.30;;;4.00;;
2772;SDS011;1394;47.044;15.744;2022-08-05T12:54:17;4.10;;;3.80;;
2772;SDS011;1394;47.044;15.744;2022-08-05T12:56:46;6.40;;;3.75;;
2772;SDS011;1394;47.044;15.744;2022-08-05T12:59:19;5.15;;;4.10;;
2772;SDS011;1394;47.044;15.744;2022-08-05T13:01:54;3.97;;;3.58;;
2772;SDS011;1394;47.044;15.744;2022-08-05T13:04:26;4.32;;;3.97;;
2772;SDS011;1394;47.044;15.744;2022-08-05T13:06:55;4.63;;;4.22;;
2772;SDS011;1394;47.044;15.744;2022-08-05T13:09:23;5.38;;;4.20;;
2772;SDS011;1394;47.044;15.744;2022-08-05T13:11:54;4.00;;;3.70;;
2772;SDS011;1394;47.044;15.744;2022-08-05T13:14:25;5.03;;;4.50;;
2772;SDS011;1394;47.044;15.744;2022-08-05T13:16:53;5.35;;;3.97;;
2772;SDS011;1394;47.044;15.744;2022-08-05T13:19:24;4.13;;;3.50;;
2772;SDS011;1394;47.044;15.744;2022-08-05T13:21:51;5.50;;;3.63;;
2772;SDS011;1394;47.044;15.744;2022-08-05T13:24:19;3.90;;;3.60;;
2772;SDS011;1394;47.044;15.744;2022-08-05T13:26:47;4.40;;;4.03;;
2772;SDS011;1394;47.044;15.744;2022-08-05T13:29:15;3.80;;;3.50;;
2772;SDS011;1394;47.044;15.744;2022-08-05T13:31:45;4.20;;;3.83;;
2772;SDS011;1394;47.044;15.744;2022-08-05T13:34:14;4.22;;;3.55;;
2772;SDS011;1394;47.044;15.744;2022-08-05T13:36:42;4.15;;;3.85;;
2772;SDS011;1394;47.044;15.744;2022-08-05T13:39:09;4.03;;;3.65;;
2772;SDS011;1394;47.044;15.744;2022-08-05T13:41:37;4.15;;;3.75;;
2772;SDS011;1394;47.044;15.744;2022-08-05T13:44:05;4.05;;;3.45;;
2772;SDS011;1394;47.044;15.744;2022-08-05T13:46:33;3.70;;;3.40;;
2772;SDS011;1394;47.044;15.744;2022-08-05T13:49:03;4.13;;;3.72;;
2772;SDS011;1394;47.044;15.744;2022-08-05T13:51:31;3.45;;;3.15;;
2772;SDS011;1394;47.044;15.744;2022-08-05T13:53:59;3.80;;;3.42;;
2772;SDS011;1394;47.044;15.744;2022-08-05T13:56:26;3.97;;;3.65;;
2772;SDS011;1394;47.044;15.744;2022-08-05T13:58:53;8.57;;;3.72;;
2772;SDS011;1394;47.044;15.744;2022-08-05T14:01:21;5.65;;;3.78;;
2772;SDS011;1394;47.044;15.744;2022-08-05T14:03:48;3.97;;;3.67;;
2772;SDS011;1394;47.044;15.744;2022-08-05T14:06:30;5.22;;;3.58;;
2772;SDS011;1394;47.044;15.744;2022-08-05T14:08:58;3.97;;;3.53;;
2772;SDS011;1394;47.044;15.744;2022-08-05T14:11:25;5.22;;;3.67;;
2772;SDS011;1394;47.044;15.744;2022-08-05T14:13:53;4.47;;;4.00;;
2772;SDS011;1394;47.044;15.744;2022-08-05T14:16:20;4.47;;;3.40;;
2772;SDS011;1394;47.044;15.744;2022-08-05T14:18:48;4.10;;;3.80;;
2772;SDS011;1394;47.044;15.744;2022-08-05T14:21:15;4.65;;;3.80;;
2772;SDS011;1394;47.044;15.744;2022-08-05T14:23:44;3.83;;;3.53;;
2772;SDS011;1394;47.044;15.744;2022-08-05T14:26:11;5.30;;;3.78;;
2772;SDS011;1394;47.044;15.744;2022-08-05T14:28:38;3.55;;;3.30;;
2772;SDS011;1394;47.044;15.744;2022-08-05T14:31:05;4.28;;;3.88;;
2772;SDS011;1394;47.044;15.744;2022-08-05T14:33:33;3.90;;;3.60;;
2772;SDS011;1394;47.044;15.744;2022-08-05T14:36:00;3.67;;;3.38;;
2772;SDS011;1394;47.044;15.744;2022-08-05T14:38:27;9.55;;;4.03;;
2772;SDS011;1394;47.044;15.744;2022-08-05T14:40:56;4.03;;;3.45;;
2772;SDS011;1394;47.044;15.744;2022-08-05T14:43:23;4.38;;;4.00;;
2772;SDS011;1394;47.044;15.744;2022-08-05T14:45:51;3.88;;;3.58;;
2772;SDS011;1394;47.044;15.744;2022-08-05T14:48:18;4.20;;;3.80;;
2772;SDS011;1394;47.044;15.744;2022-08-05T14:50:45;3.88;;;3.53;;
2772;SDS011;1394;47.044;15.744;2022-08-05T14:53:13;4.88;;;4.03;;
2772;SDS011;1394;47.044;15.744;2022-08-05T14:55:40;3.63;;;3.25;;
2772;SDS011;1394;47.044;15.744;2022-08-05T14:58:09;5.07;;;3.50;;
2772;SDS011;1394;47.044;15.744;2022-08-05T15:00:36;4.97;;;3.90;;
2772;SDS011;1394;47.044;15.744;2022-08-05T15:03:04;6.00;;;3.60;;
2772;SDS011;1394;47.044;15.744;2022-08-05T15:05:34;3.92;;;3.50;;
2772;SDS011;1394;47.044;15.744;2022-08-05T15:08:02;5.00;;;3.50;;
2772;SDS011;1394;47.044;15.744;2022-08-05T15:10:29;4.07;;;3.70;;
2772;SDS011;1394;47.044;15.744;2022-08-05T15:12:56;3.97;;;3.58;;
2772;SDS011;1394;47.044;15.744;2022-08-05T15:15:28;3.92;;;3.42;;
2772;SDS011;1394;47.044;15.744;2022-08-05T15:17:55;4.13;;;3.72;;